Terminal Aerodrome Forecast
Issued by NWS Denver/Boulder, CO

Home | Current Version | Previous Version | Text Only | Print | Product List | Glossary Off
Versions: 1 2 3 4 5 6 7 8 9 10 11 12 13 14 15 16 17 18 19 20 21 22 23 24 25 26 27 28 29 30 31 32 33 34 35 36 37 38 39 40 41 42 43 44 45 46 47 48 49 50

000
FTUS45 KBOU 191732
TAFDEN
TAF
KDEN 191732Z 1918/2024 06010KT P6SM FEW090 SCT140
     FM192200 09011KT P6SM SCT090 SCT140
     FM200200 33007KT P6SM SCT090 BKN140
     FM200600 28007KT P6SM SCT090 BKN120
     FM201400 35007KT P6SM SCT090 BKN120
     FM201800 04008KT P6SM SCT070 BKN120
     FM202100 07008KT P6SM VCTS SCT070CB BKN120=

USA.gov is the U.S. government's official web portal to all federal, state and local government web resources and services.